createdAt,value
2022-10-03T00:01:09.756Z,5.88
2022-10-03T00:03:49.892Z,7.20
2022-10-03T00:06:36.334Z,7.85
2022-10-03T00:09:25.505Z,6.97
2022-10-03T00:12:12.400Z,4.25
2022-10-03T00:15:03.879Z,8.25
2022-10-03T00:18:03.955Z,8.95
2022-10-03T00:20:55.766Z,7.85
2022-10-03T00:23:43.923Z,10.73
2022-10-03T00:26:31.599Z,7.22
2022-10-03T00:29:19.919Z,7.60
2022-10-03T00:32:23.723Z,6.70
2022-10-03T00:35:12.469Z,7.93
2022-10-03T00:38:00.589Z,7.50
2022-10-03T00:40:41.746Z,6.85
2022-10-03T00:43:38.269Z,6.63
2022-10-03T00:46:29.805Z,6.55
2022-10-03T00:49:25.947Z,6.18
2022-10-03T00:52:03.174Z,4.63
2022-10-03T00:54:53.353Z,6.03
2022-10-03T00:57:26.440Z,5.70
2022-10-03T01:00:17.610Z,7.07
2022-10-03T01:02:52.906Z,6.18
2022-10-03T01:05:40.676Z,11.77
2022-10-03T01:08:36.168Z,8.65
2022-10-03T01:11:25.687Z,9.45
2022-10-03T01:14:24.123Z,6.35
2022-10-03T01:17:12.184Z,6.43
2022-10-03T01:19:52.425Z,7.35
2022-10-03T01:22:40.728Z,8.63
2022-10-03T01:25:26.938Z,4.90
2022-10-03T01:28:21.181Z,7.20
2022-10-03T01:31:03.241Z,6.05
2022-10-03T01:33:41.160Z,6.63
2022-10-03T01:36:29.722Z,7.38
2022-10-03T01:39:16.607Z,11.85
2022-10-03T01:42:06.745Z,7.20
2022-10-03T01:44:52.927Z,8.25
2022-10-03T01:47:41.134Z,8.35
2022-10-03T01:50:30.541Z,5.97
2022-10-03T01:53:08.695Z,9.10
2022-10-03T01:55:46.609Z,10.07
2022-10-03T01:58:40.716Z,9.15
2022-10-03T02:01:25.572Z,5.95
2022-10-03T02:04:14.885Z,7.03
2022-10-03T02:06:50.097Z,6.32
2022-10-03T02:09:29.239Z,7.20
2022-10-03T02:12:08.569Z,6.97
2022-10-03T02:14:59.976Z,4.80
2022-10-03T02:17:53.715Z,8.43
2022-10-03T02:20:40.901Z,9.20
2022-10-03T02:23:32.114Z,6.32
2022-10-03T02:26:09.554Z,8.20
2022-10-03T02:28:45.330Z,6.32
2022-10-03T02:31:36.736Z,12.07
2022-10-03T02:34:27.488Z,6.43
2022-10-03T02:37:15.676Z,8.65
2022-10-03T02:40:05.301Z,7.50
2022-10-03T02:42:55.011Z,6.03
2022-10-03T02:45:43.534Z,6.80
2022-10-03T02:48:32.787Z,7.13
2022-10-03T02:51:24.358Z,8.88
2022-10-03T02:54:04.586Z,7.28
2022-10-03T02:56:59.720Z,9.10
2022-10-03T02:59:37.127Z,8.85
2022-10-03T03:02:13.437Z,7.30
2022-10-03T03:05:04.962Z,8.13
2022-10-03T03:08:09.779Z,8.82
2022-10-03T03:10:51.263Z,5.75
2022-10-03T03:13:47.949Z,9.18
2022-10-03T03:16:38.488Z,10.13
2022-10-03T03:19:35.139Z,10.77
2022-10-03T03:22:33.606Z,11.90
2022-10-03T03:25:07.008Z,9.70
2022-10-03T03:27:46.936Z,6.20
2022-10-03T03:30:25.309Z,5.28
2022-10-03T03:33:08.035Z,10.00
2022-10-03T03:35:48.251Z,6.75
2022-10-03T03:38:31.622Z,8.35
2022-10-03T03:41:21.630Z,6.63
2022-10-03T03:44:11.739Z,6.88
2022-10-03T03:47:07.967Z,6.18
2022-10-03T03:52:46.234Z,9.23
2022-10-03T03:55:49.343Z,7.63
2022-10-03T03:58:39.845Z,6.47
2022-10-03T04:01:43.655Z,9.60
2022-10-03T04:04:47.138Z,10.55
2022-10-03T04:07:42.718Z,6.63
2022-10-03T04:10:38.539Z,8.23
2022-10-03T04:13:14.075Z,7.25
2022-10-03T04:16:10.964Z,5.32
2022-10-03T04:19:04.316Z,7.47
2022-10-03T04:21:59.870Z,8.05
2022-10-03T04:24:46.331Z,8.02
2022-10-03T04:27:26.897Z,10.38
2022-10-03T04:30:20.226Z,7.88
2022-10-03T04:32:58.224Z,8.70
2022-10-03T04:35:47.660Z,6.68
2022-10-03T04:38:51.406Z,9.13
2022-10-03T04:41:43.333Z,6.35
2022-10-03T04:44:32.345Z,10.68
2022-10-03T04:47:18.599Z,8.70
2022-10-03T04:50:11.922Z,10.65
2022-10-03T04:52:47.391Z,10.65
2022-10-03T04:55:46.718Z,11.85
2022-10-03T04:58:27.592Z,9.27
2022-10-03T05:01:20.897Z,7.88
2022-10-03T05:04:05.625Z,7.45
2022-10-03T05:06:46.908Z,12.43
2022-10-03T05:09:24.142Z,8.52
2022-10-03T05:12:10.952Z,8.98
2022-10-03T05:15:04.062Z,11.80
2022-10-03T05:17:52.944Z,7.85
2022-10-03T05:20:43.014Z,9.70
2022-10-03T05:23:24.802Z,9.05
2022-10-03T05:26:16.354Z,14.18
2022-10-03T05:29:01.654Z,8.60
2022-10-03T05:31:49.297Z,9.05
2022-10-03T05:34:47.895Z,13.32
2022-10-03T05:37:35.247Z,9.75
2022-10-03T05:40:20.254Z,8.65
2022-10-03T05:42:53.398Z,11.00
2022-10-03T05:45:45.405Z,10.48
2022-10-03T05:48:21.598Z,9.20
2022-10-03T05:51:24.315Z,13.57
2022-10-03T05:54:27.476Z,11.13
2022-10-03T05:57:25.452Z,13.43
2022-10-03T06:00:10.479Z,30.60
2022-10-03T06:03:02.189Z,14.13
2022-10-03T06:05:35.446Z,15.48
2022-10-03T06:08:22.453Z,14.07
2022-10-03T06:11:12.160Z,33.67
2022-10-03T06:14:15.919Z,31.10
2022-10-03T06:16:52.242Z,29.00
2022-10-03T06:19:38.950Z,51.10
2022-10-03T06:22:34.703Z,14.20
2022-10-03T06:25:26.017Z,22.95
2022-10-03T06:28:14.256Z,34.53
2022-10-03T06:31:08.739Z,19.20
2022-10-03T06:34:12.673Z,12.10
2022-10-03T06:37:01.940Z,11.43
2022-10-03T06:39:57.524Z,8.18
2022-10-03T06:42:50.404Z,12.13
2022-10-03T06:45:26.469Z,10.35
2022-10-03T06:48:08.995Z,21.50
2022-10-03T06:50:48.399Z,22.65
2022-10-03T06:53:51.541Z,11.25
2022-10-03T06:56:40.847Z,19.35
2022-10-03T06:59:23.185Z,19.05
2022-10-03T07:02:17.582Z,15.25
2022-10-03T07:05:19.832Z,12.93
2022-10-03T07:08:22.198Z,16.13
2022-10-03T07:11:11.525Z,14.30
2022-10-03T07:14:10.939Z,12.30
2022-10-03T07:17:00.618Z,12.35
2022-10-03T07:19:41.031Z,9.05
2022-10-03T07:22:29.464Z,10.15
2022-10-03T07:25:20.693Z,13.02
2022-10-03T07:28:10.102Z,17.00
2022-10-03T07:30:56.715Z,13.07
2022-10-03T07:33:40.394Z,20.45
2022-10-03T07:36:32.588Z,11.20
2022-10-03T07:39:13.977Z,16.25
2022-10-03T07:41:52.931Z,14.02
2022-10-03T07:44:36.392Z,17.08
2022-10-03T07:47:28.284Z,11.55
2022-10-03T07:50:12.381Z,13.63
2022-10-03T07:52:47.859Z,11.23
2022-10-03T07:55:43.001Z,15.02
2022-10-03T07:58:34.941Z,18.88
2022-10-03T08:01:38.945Z,40.50
2022-10-03T08:04:28.675Z,17.17
2022-10-03T08:07:19.280Z,12.82
2022-10-03T08:09:58.593Z,13.20
2022-10-03T08:12:34.181Z,16.00
2022-10-03T08:15:22.419Z,11.10
2022-10-03T08:18:21.503Z,13.35
2022-10-03T08:21:00.934Z,11.60
2022-10-03T08:24:04.774Z,13.13
2022-10-03T08:26:48.117Z,8.85
2022-10-03T08:29:26.609Z,12.10
2022-10-03T08:32:29.702Z,16.30
2022-10-03T08:35:35.748Z,11.55
2022-10-03T08:38:28.183Z,12.32
2022-10-03T08:41:18.324Z,9.75
2022-10-03T08:44:14.279Z,18.38
2022-10-03T08:47:10.754Z,12.00
2022-10-03T08:50:14.574Z,10.15
2022-10-03T08:52:57.134Z,9.43
2022-10-03T08:55:51.454Z,11.23
2022-10-03T08:58:32.674Z,12.18
2022-10-03T09:01:22.130Z,13.52
2022-10-03T09:04:11.324Z,12.13
2022-10-03T09:07:17.500Z,9.55
2022-10-03T09:10:16.833Z,10.48
2022-10-03T09:13:20.493Z,11.15
2022-10-03T09:16:28.229Z,16.55
2022-10-03T09:19:09.573Z,14.98
2022-10-03T09:21:48.753Z,11.73
2022-10-03T09:24:21.951Z,10.57
2022-10-03T09:26:56.430Z,11.13
2022-10-03T09:29:51.603Z,16.02
2022-10-03T09:32:47.417Z,13.38
2022-10-03T09:35:51.226Z,12.17
2022-10-03T09:38:39.484Z,13.43
2022-10-03T09:41:35.101Z,13.48
2022-10-03T09:44:12.373Z,10.98
2022-10-03T09:47:22.926Z,11.52
2022-10-03T09:50:02.346Z,14.90
2022-10-03T09:53:02.841Z,10.73
2022-10-03T09:55:52.255Z,12.25
2022-10-03T09:58:56.341Z,12.65
2022-10-03T10:01:35.180Z,12.32
2022-10-03T10:04:43.508Z,9.90
2022-10-03T10:07:39.735Z,14.00
2022-10-03T10:10:43.414Z,13.98
2022-10-03T10:13:22.065Z,14.32
2022-10-03T10:16:17.084Z,10.18
2022-10-03T10:19:16.022Z,8.77
2022-10-03T10:22:17.772Z,12.00
2022-10-03T10:25:06.075Z,13.43
2022-10-03T10:28:00.346Z,12.77
2022-10-03T10:30:36.715Z,17.48
2022-10-03T10:33:40.518Z,17.65
2022-10-03T10:36:37.045Z,15.00
2022-10-03T10:39:40.737Z,18.63
2022-10-03T10:42:32.652Z,17.42
2022-10-03T10:45:36.729Z,18.25
2022-10-03T10:48:18.704Z,19.13
2022-10-03T10:51:14.724Z,20.98
2022-10-03T10:54:17.954Z,20.70
2022-10-03T10:57:09.728Z,15.43
2022-10-03T11:00:01.116Z,13.77
2022-10-03T11:02:55.565Z,17.30
2022-10-03T11:05:59.308Z,20.25
2022-10-03T11:08:55.344Z,16.58
2022-10-03T11:11:54.617Z,14.32
2022-10-03T11:14:46.545Z,17.63
2022-10-03T11:17:28.098Z,20.85
2022-10-03T11:20:31.276Z,15.82
2022-10-03T11:23:21.260Z,16.95
2022-10-03T11:26:24.839Z,16.55
2022-10-03T11:29:30.508Z,18.42
2022-10-03T11:32:29.041Z,16.15
2022-10-03T11:35:18.943Z,16.50
2022-10-03T11:38:22.904Z,20.65
2022-10-03T11:41:01.199Z,18.08
2022-10-03T11:44:05.147Z,16.65
2022-10-03T11:47:08.569Z,18.38
2022-10-03T11:49:43.978Z,15.60
2022-10-03T11:52:35.536Z,15.73
2022-10-03T11:55:20.199Z,14.32
2022-10-03T11:58:07.300Z,14.13
2022-10-03T12:00:42.467Z,18.17
2022-10-03T12:03:27.721Z,14.38
2022-10-03T12:06:17.577Z,14.88
2022-10-03T12:09:20.822Z,16.33
2022-10-03T12:12:05.584Z,20.40
2022-10-03T12:14:47.011Z,16.55
2022-10-03T12:17:33.153Z,15.45
2022-10-03T12:20:32.227Z,22.02
2022-10-03T12:23:14.310Z,19.77
2022-10-03T12:25:50.427Z,20.38
2022-10-03T12:28:25.952Z,22.92
2022-10-03T12:31:03.823Z,29.65
2022-10-03T12:33:53.030Z,25.05
2022-10-03T12:36:27.272Z,23.13
2022-10-03T12:39:14.353Z,18.15
2022-10-03T12:41:50.770Z,18.38
2022-10-03T12:44:42.426Z,16.52
2022-10-03T12:47:54.350Z,12.98
2022-10-03T12:50:44.449Z,17.65
2022-10-03T12:53:18.665Z,16.35
2022-10-03T12:56:15.316Z,25.50
2022-10-03T12:59:15.470Z,19.35
2022-10-03T13:02:07.891Z,23.10
2022-10-03T13:04:52.120Z,20.13
2022-10-03T13:07:43.475Z,20.98
2022-10-03T13:10:43.670Z,23.98
2022-10-03T13:13:35.789Z,17.23
2022-10-03T13:16:25.728Z,16.88
2022-10-03T13:19:04.231Z,16.55
2022-10-03T13:22:06.556Z,17.23
2022-10-03T13:24:46.796Z,13.60
2022-10-03T13:27:36.201Z,19.02
2022-10-03T13:30:18.139Z,17.10
2022-10-03T13:33:10.926Z,16.45
2022-10-03T13:36:06.393Z,13.80
2022-10-03T13:39:03.172Z,10.27
2022-10-03T13:41:42.525Z,13.45
2022-10-03T13:44:32.621Z,15.95
2022-10-03T13:47:28.227Z,15.75
2022-10-03T13:50:05.092Z,17.83
2022-10-03T13:52:43.699Z,12.80
2022-10-03T13:55:35.578Z,13.32
2022-10-03T13:58:26.398Z,16.13
2022-10-03T14:01:12.272Z,19.75
2022-10-03T14:04:09.920Z,15.27
2022-10-03T14:06:45.212Z,16.52
2022-10-03T14:12:11.153Z,19.67
2022-10-03T14:14:53.604Z,16.63
2022-10-03T14:17:34.510Z,17.95
2022-10-03T14:20:31.237Z,15.38
2022-10-03T14:23:23.910Z,16.23
2022-10-03T14:26:05.158Z,15.48
2022-10-03T14:28:41.646Z,15.65
2022-10-03T14:31:35.211Z,17.17
2022-10-03T14:34:22.103Z,14.95
2022-10-03T14:37:14.478Z,17.58
2022-10-03T14:40:09.664Z,16.42
2022-10-03T14:43:05.648Z,13.10
2022-10-03T14:45:45.445Z,15.82
2022-10-03T14:48:24.907Z,16.27
2022-10-03T14:51:10.853Z,22.77
2022-10-03T14:54:03.025Z,14.10
2022-10-03T14:56:44.773Z,17.48
2022-10-03T14:59:21.577Z,13.48
2022-10-03T15:01:56.906Z,18.02
2022-10-03T15:04:33.386Z,31.40
2022-10-03T15:07:08.026Z,19.33
2022-10-03T15:09:42.949Z,24.65
2022-10-03T15:12:28.856Z,39.95
2022-10-03T15:15:07.471Z,28.88
2022-10-03T15:18:00.681Z,19.00
2022-10-03T15:20:37.724Z,28.20
2022-10-03T15:23:29.478Z,21.45
2022-10-03T15:26:04.506Z,19.25
2022-10-03T15:28:42.482Z,18.52
2022-10-03T15:31:30.328Z,23.48
2022-10-03T15:34:07.529Z,22.00
2022-10-03T15:36:44.399Z,18.30
2022-10-03T15:39:25.125Z,15.00
2022-10-03T15:42:29.337Z,34.03
2022-10-03T15:45:05.944Z,21.95
2022-10-03T15:47:46.618Z,20.77
2022-10-03T15:50:23.859Z,26.10
2022-10-03T15:53:12.379Z,22.48
2022-10-03T15:55:56.592Z,21.27
2022-10-03T15:58:34.402Z,18.35
2022-10-03T16:01:23.459Z,17.85
2022-10-03T16:04:01.685Z,22.42
2022-10-03T16:06:53.172Z,17.60
2022-10-03T16:09:41.087Z,37.42
2022-10-03T16:12:36.747Z,20.15
2022-10-03T16:15:17.026Z,33.78
2022-10-03T16:17:55.818Z,22.88
2022-10-03T16:20:41.928Z,43.10
2022-10-03T16:23:29.074Z,27.23
2022-10-03T16:26:19.315Z,20.15
2022-10-03T16:29:10.904Z,34.42
2022-10-03T16:31:53.763Z,32.22
2022-10-03T16:34:31.192Z,22.75
2022-10-03T16:37:15.549Z,18.90
2022-10-03T16:39:56.039Z,16.02
2022-10-03T16:42:42.551Z,17.75
2022-10-03T16:45:33.836Z,14.07
2022-10-03T16:48:36.095Z,17.88
2022-10-03T16:51:28.192Z,13.63
2022-10-03T16:54:04.216Z,15.07
2022-10-03T16:56:43.948Z,15.85
2022-10-03T16:59:21.093Z,15.18
2022-10-03T17:01:58.629Z,17.27
2022-10-03T17:04:36.991Z,15.77
2022-10-03T17:07:18.679Z,16.65
2022-10-03T17:09:53.685Z,12.60
2022-10-03T17:12:33.503Z,15.48
2022-10-03T17:15:10.485Z,15.32
2022-10-03T17:18:03.084Z,14.68
2022-10-03T17:20:37.470Z,13.38
2022-10-03T17:23:32.890Z,15.13
2022-10-03T17:26:14.577Z,12.67
2022-10-03T17:29:09.953Z,13.35
2022-10-03T17:32:05.580Z,17.95
2022-10-03T17:34:40.789Z,20.30
2022-10-03T17:37:32.812Z,14.73
2022-10-03T17:40:23.533Z,12.88
2022-10-03T17:43:03.003Z,17.58
2022-10-03T17:45:55.551Z,14.75
2022-10-03T17:48:39.121Z,16.88
2022-10-03T17:51:21.478Z,21.42
2022-10-03T17:53:59.533Z,27.33
2022-10-03T17:56:34.884Z,26.27
2022-10-03T18:01:54.590Z,35.40
2022-10-03T18:04:36.056Z,27.45
2022-10-03T18:07:26.361Z,19.38
2022-10-03T18:09:59.166Z,21.70
2022-10-03T18:12:40.265Z,21.27
2022-10-03T18:15:39.773Z,18.98
2022-10-03T18:18:45.034Z,22.33
2022-10-03T18:21:25.690Z,17.15
2022-10-03T18:24:26.317Z,18.75
2022-10-03T18:27:11.064Z,15.38
2022-10-03T18:29:57.481Z,18.92
2022-10-03T18:32:32.949Z,18.60
2022-10-03T18:35:27.050Z,16.00
2022-10-03T18:38:04.085Z,20.05
2022-10-03T18:40:47.768Z,19.27
2022-10-03T18:43:30.624Z,19.30
2022-10-03T18:46:16.579Z,20.55
2022-10-03T18:49:30.086Z,19.40
2022-10-03T18:52:07.699Z,17.92
2022-10-03T18:54:56.463Z,19.30
2022-10-03T18:57:43.262Z,21.08
2022-10-03T19:00:19.603Z,17.65
2022-10-03T19:02:54.687Z,21.52
2022-10-03T19:05:36.327Z,21.70
2022-10-03T19:08:11.921Z,14.38
2022-10-03T19:13:31.213Z,17.88
2022-10-03T19:16:28.882Z,14.23
2022-10-03T19:19:06.664Z,15.50
2022-10-03T19:21:42.555Z,14.30
2022-10-03T19:24:39.791Z,18.70
2022-10-03T19:27:19.631Z,14.82
2022-10-03T19:29:58.174Z,18.10
2022-10-03T19:33:04.346Z,15.40
2022-10-03T19:35:47.462Z,17.33
2022-10-03T19:38:25.406Z,18.77
2022-10-03T19:41:15.697Z,18.10
2022-10-03T19:43:50.299Z,14.75
2022-10-03T19:46:56.968Z,18.10
2022-10-03T19:52:21.494Z,14.95
2022-10-03T19:55:05.772Z,17.67
2022-10-03T19:57:41.879Z,18.58
2022-10-03T20:00:16.364Z,15.75
2022-10-03T20:03:06.803Z,17.02
2022-10-03T20:05:53.787Z,16.90
2022-10-03T20:08:47.828Z,19.13
2022-10-03T20:11:51.244Z,18.83
2022-10-03T20:14:28.197Z,13.07
2022-10-03T20:17:11.666Z,15.52
2022-10-03T20:19:54.845Z,20.45
2022-10-03T20:22:31.282Z,15.07
2022-10-03T20:25:08.428Z,15.25
2022-10-03T20:27:48.774Z,17.05
2022-10-03T20:30:25.891Z,14.73
2022-10-03T20:32:59.905Z,12.35
2022-10-03T20:35:53.172Z,14.00
2022-10-03T20:38:42.332Z,16.23
2022-10-03T20:41:25.566Z,14.10
2022-10-03T20:44:19.789Z,16.00
2022-10-03T20:47:02.271Z,12.82
2022-10-03T20:49:41.925Z,13.80
2022-10-03T20:52:20.909Z,12.85
2022-10-03T20:55:06.673Z,14.48
2022-10-03T21:00:25.224Z,17.17
2022-10-03T21:02:59.650Z,12.35
2022-10-03T21:05:35.716Z,14.18
2022-10-03T21:08:39.777Z,14.63
2022-10-03T21:11:12.987Z,14.32
2022-10-03T21:14:11.305Z,17.02
2022-10-03T21:16:48.704Z,16.00
2022-10-03T21:19:38.341Z,18.55
2022-10-03T21:22:17.529Z,15.63
2022-10-03T21:24:57.527Z,18.13
2022-10-03T21:27:32.472Z,17.52
2022-10-03T21:30:18.787Z,12.75
2022-10-03T21:33:00.109Z,11.07
2022-10-03T21:35:39.858Z,14.57
2022-10-03T21:38:28.665Z,23.20
2022-10-03T21:41:18.315Z,24.70
2022-10-03T21:44:01.484Z,16.50
2022-10-03T21:46:38.057Z,19.75
2022-10-03T21:49:45.689Z,14.60
2022-10-03T21:52:43.893Z,16.52
2022-10-03T21:55:45.370Z,18.23
2022-10-03T21:58:29.432Z,15.13
2022-10-03T22:01:24.689Z,16.13
2022-10-03T22:04:06.076Z,15.83
2022-10-03T22:06:53.593Z,14.30
2022-10-03T22:09:26.365Z,15.82
2022-10-03T22:12:05.005Z,14.90
2022-10-03T22:14:46.616Z,14.77
2022-10-03T22:17:40.699Z,16.05
2022-10-03T22:20:21.382Z,14.15
2022-10-03T22:23:06.444Z,16.17
2022-10-03T22:25:54.613Z,14.43
2022-10-03T22:28:47.527Z,14.10
2022-10-03T22:31:40.636Z,17.17
2022-10-03T22:34:28.828Z,13.38
2022-10-03T22:37:02.153Z,14.85
2022-10-03T22:39:36.587Z,15.45
2022-10-03T22:42:13.379Z,18.08
2022-10-03T22:44:51.756Z,16.10
2022-10-03T22:47:30.253Z,14.73
2022-10-03T22:50:09.606Z,15.23
2022-10-03T22:52:48.500Z,14.95
2022-10-03T22:55:24.283Z,16.85
2022-10-03T22:57:57.363Z,18.88
2022-10-03T23:00:35.775Z,15.30
2022-10-03T23:03:15.961Z,23.63
2022-10-03T23:06:01.769Z,20.23
2022-10-03T23:08:36.008Z,15.98
2022-10-03T23:11:09.068Z,17.13
2022-10-03T23:13:44.277Z,17.55
2022-10-03T23:16:35.972Z,17.67
2022-10-03T23:19:30.183Z,18.52
2022-10-03T23:22:04.040Z,16.50
2022-10-03T23:24:51.877Z,16.42
2022-10-03T23:27:46.159Z,13.30
2022-10-03T23:30:20.523Z,12.35
2022-10-03T23:32:54.786Z,16.95
2022-10-03T23:35:43.830Z,13.15
2022-10-03T23:38:33.519Z,11.80
2022-10-03T23:41:15.658Z,15.20
2022-10-03T23:43:55.130Z,12.27
2022-10-03T23:46:31.198Z,14.93
2022-10-03T23:49:05.983Z,15.73
2022-10-03T23:51:39.627Z,13.43
2022-10-03T23:54:13.676Z,13.88
2022-10-03T23:56:49.249Z,10.75
2022-10-03T23:59:25.340Z,17.23
